createdAt,value
2023-12-05T00:00:09.187Z,-2.06
2023-12-05T00:02:38.096Z,-2.06
2023-12-05T00:05:08.124Z,-2.28
2023-12-05T00:07:38.282Z,-2.18
2023-12-05T00:10:07.943Z,-2.24
2023-12-05T00:12:38.595Z,-2.20
2023-12-05T00:15:08.391Z,-2.18
2023-12-05T00:17:37.165Z,-2.28
2023-12-05T00:20:06.094Z,-2.30
2023-12-05T00:22:34.699Z,-2.31
2023-12-05T00:25:05.554Z,-2.35
2023-12-05T00:27:34.418Z,-2.35
2023-12-05T00:30:02.960Z,-2.33
2023-12-05T00:32:33.233Z,-2.36
2023-12-05T00:35:01.879Z,-2.36
2023-12-05T00:37:29.432Z,-2.43
2023-12-05T00:39:58.437Z,-2.43
2023-12-05T00:42:28.457Z,-2.47
2023-12-05T00:44:57.037Z,-2.44
2023-12-05T00:47:25.585Z,-2.50
2023-12-05T00:49:54.238Z,-2.49
2023-12-05T00:52:23.412Z,-2.55
2023-12-05T00:54:51.923Z,-2.51
2023-12-05T00:57:20.504Z,-2.60
2023-12-05T00:59:50.440Z,-2.61
2023-12-05T01:02:18.895Z,-2.59
2023-12-05T01:04:47.544Z,-2.56
2023-12-05T01:07:16.316Z,-2.61
2023-12-05T01:09:45.057Z,-2.62
2023-12-05T01:12:14.354Z,-2.63
2023-12-05T01:14:43.948Z,-2.64
2023-12-05T01:17:14.128Z,-2.71
2023-12-05T01:19:42.788Z,-2.67
2023-12-05T01:22:11.323Z,-2.67
2023-12-05T01:24:40.189Z,-2.69
2023-12-05T01:27:09.210Z,-2.69
2023-12-05T01:29:37.814Z,-2.70
2023-12-05T01:32:06.686Z,-2.69
2023-12-05T01:34:37.942Z,-2.70
2023-12-05T01:37:06.454Z,-2.72
2023-12-05T01:39:35.204Z,-2.73
2023-12-05T01:42:03.829Z,-2.79
2023-12-05T01:44:32.299Z,-2.78
2023-12-05T01:47:01.827Z,-2.78
2023-12-05T01:49:30.835Z,-2.90
2023-12-05T01:52:02.593Z,-2.86
2023-12-05T01:54:34.065Z,-2.90
2023-12-05T01:57:03.137Z,-2.89
2023-12-05T01:59:31.693Z,-3.00
2023-12-05T02:02:06.143Z,-2.91
2023-12-05T02:04:36.725Z,-2.95
2023-12-05T02:07:08.213Z,-2.93
2023-12-05T02:09:38.961Z,-2.94
2023-12-05T02:12:08.048Z,-2.94
2023-12-05T02:14:36.600Z,-3.00
2023-12-05T02:17:12.876Z,-3.07
2023-12-05T02:19:55.275Z,-3.02
2023-12-05T02:22:56.599Z,-3.05
2023-12-05T02:25:40.576Z,-3.07
2023-12-05T02:28:12.220Z,-3.07
2023-12-05T02:30:40.712Z,-3.06
2023-12-05T02:33:09.355Z,-3.10
2023-12-05T02:35:38.483Z,-3.10
2023-12-05T02:38:14.937Z,-3.17
2023-12-05T02:40:53.141Z,-3.15
2023-12-05T02:43:30.833Z,-3.15
2023-12-05T02:46:08.817Z,-3.15
2023-12-05T02:48:40.205Z,-3.20
2023-12-05T02:51:09.179Z,-3.25
2023-12-05T02:53:38.045Z,-3.29
2023-12-05T02:56:07.771Z,-3.31
2023-12-05T02:58:37.715Z,-3.32
2023-12-05T03:01:06.868Z,-3.34
2023-12-05T03:03:35.455Z,-3.35
2023-12-05T03:06:04.271Z,-3.41
2023-12-05T03:08:32.905Z,-3.43
2023-12-05T03:11:07.089Z,-3.39
2023-12-05T03:13:42.570Z,-3.45
2023-12-05T03:16:11.827Z,-3.48
2023-12-05T03:18:40.779Z,-3.45
2023-12-05T03:21:10.754Z,-3.46
2023-12-05T03:23:39.410Z,-3.51
2023-12-05T03:26:08.851Z,-3.50
2023-12-05T03:28:37.447Z,-3.55
2023-12-05T03:31:07.566Z,-3.57
2023-12-05T03:33:38.866Z,-3.55
2023-12-05T03:36:08.413Z,-3.57
2023-12-05T03:38:37.133Z,-3.59
2023-12-05T03:41:06.138Z,-3.58
2023-12-05T03:43:35.035Z,-3.54
2023-12-05T03:46:03.736Z,-3.66
2023-12-05T03:48:34.181Z,-3.54
2023-12-05T03:51:03.006Z,-3.50
2023-12-05T03:53:32.037Z,-3.52
2023-12-05T03:56:00.498Z,-3.53
2023-12-05T03:58:29.597Z,-3.51
2023-12-05T04:00:58.962Z,-3.51
2023-12-05T04:03:28.336Z,-3.62
2023-12-05T04:05:58.633Z,-3.55
2023-12-05T04:08:27.351Z,-3.59
2023-12-05T04:10:55.938Z,-3.57
2023-12-05T04:13:29.789Z,-3.54
2023-12-05T04:15:59.248Z,-3.55
2023-12-05T04:18:27.795Z,-3.55
2023-12-05T04:20:57.990Z,-3.50
2023-12-05T04:23:26.561Z,-3.50
2023-12-05T04:25:55.164Z,-3.49
2023-12-05T04:28:23.858Z,-3.46
2023-12-05T04:30:52.499Z,-3.52
2023-12-05T04:33:21.136Z,-3.47
2023-12-05T04:35:49.700Z,-3.39
2023-12-05T04:38:20.042Z,-3.41
2023-12-05T04:40:48.507Z,-3.33
2023-12-05T04:43:17.613Z,-3.25
2023-12-05T04:45:47.091Z,-3.23
2023-12-05T04:48:15.958Z,-3.16
2023-12-05T04:50:45.800Z,-3.11
2023-12-05T04:53:14.612Z,-3.17
2023-12-05T04:55:44.852Z,-3.12
2023-12-05T04:58:13.451Z,-3.08
2023-12-05T05:00:42.073Z,-3.10
2023-12-05T05:03:10.928Z,-3.14
2023-12-05T05:05:39.669Z,-3.14
2023-12-05T05:08:08.692Z,-3.22
2023-12-05T05:10:37.227Z,-3.25
2023-12-05T05:13:07.123Z,-3.36
2023-12-05T05:15:35.674Z,-3.41
2023-12-05T05:18:04.284Z,-3.42
2023-12-05T05:20:33.017Z,-3.48
2023-12-05T05:23:01.880Z,-3.56
2023-12-05T05:25:33.459Z,-3.64
2023-12-05T05:28:02.144Z,-3.61
2023-12-05T05:30:32.108Z,-3.60
2023-12-05T05:33:00.768Z,-3.61
2023-12-05T05:35:30.739Z,-3.57
2023-12-05T05:37:59.228Z,-3.68
2023-12-05T05:40:29.314Z,-3.62
2023-12-05T05:42:57.902Z,-3.57
2023-12-05T05:45:26.569Z,-3.58
2023-12-05T05:47:57.238Z,-3.55
2023-12-05T05:50:25.785Z,-3.49
2023-12-05T05:52:54.471Z,-3.41
2023-12-05T05:55:26.253Z,-3.32
2023-12-05T05:57:55.544Z,-3.27
2023-12-05T06:00:24.701Z,-3.41
2023-12-05T06:02:53.230Z,-3.46
2023-12-05T06:05:23.232Z,-3.48
2023-12-05T06:07:51.763Z,-3.48
2023-12-05T06:10:20.548Z,-3.51
2023-12-05T06:12:49.262Z,-3.56
2023-12-05T06:15:18.873Z,-3.63
2023-12-05T06:17:47.533Z,-3.65
2023-12-05T06:20:16.214Z,-3.68
2023-12-05T06:22:46.209Z,-3.63
2023-12-05T06:25:14.737Z,-3.71
2023-12-05T06:27:44.065Z,-3.66
2023-12-05T06:30:21.321Z,-3.67
2023-12-05T06:32:53.722Z,-3.77
2023-12-05T06:35:22.390Z,-3.74
2023-12-05T06:37:53.842Z,-3.78
2023-12-05T06:40:22.628Z,-3.76
2023-12-05T06:42:51.600Z,-3.75
2023-12-05T06:45:20.149Z,-3.77
2023-12-05T06:47:49.237Z,-3.81
2023-12-05T06:50:18.137Z,-3.78
2023-12-05T06:52:46.782Z,-3.74
2023-12-05T06:55:16.747Z,-3.74
2023-12-05T06:57:45.222Z,-3.73
2023-12-05T07:00:15.437Z,-3.81
2023-12-05T07:02:44.014Z,-3.77
2023-12-05T07:05:12.865Z,-3.69
2023-12-05T07:07:41.924Z,-3.64
2023-12-05T07:10:10.683Z,-3.57
2023-12-05T07:12:41.157Z,-3.58
2023-12-05T07:15:11.672Z,-3.57
2023-12-05T07:17:40.274Z,-3.62
2023-12-05T07:20:10.611Z,-3.55
2023-12-05T07:22:39.826Z,-3.59
2023-12-05T07:25:08.846Z,-3.60
2023-12-05T07:27:37.718Z,-3.66
2023-12-05T07:30:09.843Z,-3.67
2023-12-05T07:32:38.474Z,-3.73
2023-12-05T07:35:07.930Z,-3.76
2023-12-05T07:37:36.427Z,-3.75
2023-12-05T07:40:07.022Z,-3.73
2023-12-05T07:42:35.625Z,-3.66
2023-12-05T07:45:06.511Z,-3.67
2023-12-05T07:47:37.142Z,-3.63
2023-12-05T07:50:06.549Z,-3.56
2023-12-05T07:52:35.471Z,-3.53
2023-12-05T07:55:03.967Z,-3.47
2023-12-05T07:57:32.914Z,-3.44
2023-12-05T08:00:04.038Z,-3.34
2023-12-05T08:02:32.907Z,-3.23
2023-12-05T08:05:03.397Z,-3.14
2023-12-05T08:07:32.121Z,-3.04
2023-12-05T08:10:00.724Z,-2.98
2023-12-05T08:12:29.286Z,-2.88
2023-12-05T08:14:57.758Z,-2.80
2023-12-05T08:17:26.258Z,-2.72
2023-12-05T08:19:54.994Z,-2.67
2023-12-05T08:22:26.733Z,-2.60
2023-12-05T08:24:55.390Z,-2.58
2023-12-05T08:27:24.804Z,-2.54
2023-12-05T08:29:53.392Z,-2.50
2023-12-05T08:32:21.599Z,-2.46
2023-12-05T08:34:50.568Z,-2.45
2023-12-05T08:37:19.292Z,-2.37
2023-12-05T08:39:49.240Z,-2.34
2023-12-05T08:42:17.730Z,-2.31
2023-12-05T08:44:46.660Z,-2.28
2023-12-05T08:47:15.291Z,-2.24
2023-12-05T08:49:44.014Z,-2.23
2023-12-05T08:52:12.676Z,-2.27
2023-12-05T08:54:41.393Z,-2.14
2023-12-05T08:57:11.743Z,-2.23
2023-12-05T08:59:40.851Z,-2.08
2023-12-05T09:02:09.506Z,-2.05
2023-12-05T09:04:39.363Z,-2.00
2023-12-05T09:07:08.174Z,-2.04
2023-12-05T09:09:39.992Z,-2.01
2023-12-05T09:12:08.676Z,-1.98
2023-12-05T09:14:38.637Z,-2.00
2023-12-05T09:17:10.588Z,-1.93
2023-12-05T09:19:39.171Z,-1.85
2023-12-05T09:22:07.669Z,-1.81
2023-12-05T09:24:36.176Z,-1.84
2023-12-05T09:27:04.796Z,-1.78
2023-12-05T09:29:33.373Z,-1.69
2023-12-05T09:32:03.320Z,-1.62
2023-12-05T09:34:31.909Z,-1.58
2023-12-05T09:37:00.431Z,-1.54
2023-12-05T09:39:30.564Z,-1.48
2023-12-05T09:42:04.832Z,-1.46
2023-12-05T09:44:35.302Z,-1.43
2023-12-05T09:47:07.179Z,-1.38
2023-12-05T09:49:35.889Z,-1.35
2023-12-05T09:52:04.873Z,-1.24
2023-12-05T09:54:36.329Z,-1.22
2023-12-05T09:57:05.261Z,-1.19
2023-12-05T09:59:33.814Z,-0.89
2023-12-05T10:02:05.703Z,-0.91
2023-12-05T10:04:43.330Z,-0.89
2023-12-05T10:07:13.134Z,-0.91
2023-12-05T10:09:42.923Z,-0.86
2023-12-05T10:12:12.666Z,-0.83
2023-12-05T10:14:42.074Z,-0.77
2023-12-05T10:17:12.138Z,-0.78
2023-12-05T10:19:41.606Z,-0.76
2023-12-05T10:22:10.411Z,-0.75
2023-12-05T10:24:44.366Z,-0.70
2023-12-05T10:27:13.155Z,-0.63
2023-12-05T10:29:43.066Z,-0.59
2023-12-05T10:32:14.987Z,-0.54
2023-12-05T10:34:49.538Z,-0.58
2023-12-05T10:37:22.730Z,-0.48
2023-12-05T10:39:52.056Z,-0.41
2023-12-05T10:42:20.818Z,-0.33
2023-12-05T10:44:49.685Z,-0.29
2023-12-05T10:47:20.465Z,-0.26
2023-12-05T10:49:51.186Z,-0.19
2023-12-05T10:52:20.265Z,-0.17
2023-12-05T10:54:57.970Z,-0.06
2023-12-05T10:57:34.689Z,-0.01
2023-12-05T11:00:06.974Z,-0.06
2023-12-05T11:02:39.920Z,0.10
2023-12-05T11:05:11.623Z,0.12
2023-12-05T11:07:40.295Z,0.19
2023-12-05T11:10:11.762Z,0.22
2023-12-05T11:12:42.633Z,0.30
2023-12-05T11:15:15.082Z,0.39
2023-12-05T11:17:51.632Z,0.53
2023-12-05T11:20:30.258Z,0.62
2023-12-05T11:23:18.903Z,0.69
2023-12-05T11:25:56.374Z,0.82
2023-12-05T11:28:44.632Z,0.87
2023-12-05T11:31:22.223Z,0.89
2023-12-05T11:34:10.730Z,0.93
2023-12-05T11:36:52.489Z,0.93
2023-12-05T11:39:21.729Z,0.91
2023-12-05T11:42:11.754Z,0.87
2023-12-05T11:44:41.052Z,0.90
2023-12-05T11:47:15.971Z,0.95
2023-12-05T11:49:54.782Z,0.95
2023-12-05T11:52:24.506Z,0.97
2023-12-05T11:54:55.280Z,1.02
2023-12-05T11:57:25.713Z,1.09
2023-12-05T11:59:55.949Z,1.15
2023-12-05T12:02:42.436Z,1.17
2023-12-05T12:05:14.152Z,1.14
2023-12-05T12:07:54.053Z,1.10
2023-12-05T12:10:22.906Z,1.13
2023-12-05T12:12:52.492Z,1.12
2023-12-05T12:15:22.568Z,1.18
2023-12-05T12:17:51.357Z,1.21
2023-12-05T12:20:21.715Z,1.20
2023-12-05T12:22:52.787Z,1.12
2023-12-05T12:25:21.420Z,0.99
2023-12-05T12:27:49.976Z,0.92
2023-12-05T12:30:19.920Z,0.82
2023-12-05T12:32:57.627Z,0.89
2023-12-05T12:35:28.956Z,0.86
2023-12-05T12:37:58.862Z,0.98
2023-12-05T12:40:28.328Z,1.05
2023-12-05T12:42:57.519Z,1.14
2023-12-05T12:45:27.801Z,1.12
2023-12-05T12:47:57.550Z,1.15
2023-12-05T12:50:27.868Z,1.11
2023-12-05T12:52:56.447Z,1.09
2023-12-05T12:55:25.266Z,1.12
2023-12-05T12:57:55.494Z,1.07
2023-12-05T13:00:32.443Z,1.17
2023-12-05T13:03:06.136Z,1.22
2023-12-05T13:05:37.790Z,1.16
2023-12-05T13:08:07.037Z,1.18
2023-12-05T13:10:37.902Z,1.09
2023-12-05T13:13:07.125Z,0.98
2023-12-05T13:15:35.815Z,0.97
2023-12-05T13:18:05.586Z,0.94
2023-12-05T13:20:49.106Z,0.94
2023-12-05T13:23:18.620Z,0.95
2023-12-05T13:25:47.292Z,0.95
2023-12-05T13:28:16.029Z,0.97
2023-12-05T13:30:44.653Z,0.94
2023-12-05T13:33:16.403Z,0.94
2023-12-05T13:35:46.718Z,0.89
2023-12-05T13:38:15.301Z,0.87
2023-12-05T13:40:43.828Z,0.86
2023-12-05T13:43:12.389Z,0.83
2023-12-05T13:45:40.988Z,0.79
2023-12-05T13:48:09.559Z,0.80
2023-12-05T13:50:38.103Z,0.66
2023-12-05T13:53:08.059Z,0.71
2023-12-05T13:55:36.640Z,0.75
2023-12-05T13:58:05.220Z,0.79
2023-12-05T14:00:34.090Z,0.79
2023-12-05T14:03:03.616Z,0.78
2023-12-05T14:05:32.926Z,0.77
2023-12-05T14:08:02.454Z,0.76
2023-12-05T14:10:32.456Z,0.74
2023-12-05T14:13:01.116Z,0.68
2023-12-05T14:15:30.043Z,0.70
2023-12-05T14:17:59.001Z,0.64
2023-12-05T14:20:27.723Z,0.59
2023-12-05T14:22:56.280Z,0.64
2023-12-05T14:25:24.887Z,0.65
2023-12-05T14:27:56.061Z,0.64
2023-12-05T14:30:24.950Z,0.50
2023-12-05T14:32:53.545Z,0.66
2023-12-05T14:35:22.826Z,0.65
2023-12-05T14:37:51.529Z,0.60
2023-12-05T14:40:21.128Z,0.52
2023-12-05T14:42:50.949Z,0.60
2023-12-05T14:45:23.148Z,0.59
2023-12-05T14:47:53.206Z,0.59
2023-12-05T14:50:21.826Z,0.59
2023-12-05T14:52:51.090Z,0.59
2023-12-05T14:55:19.738Z,0.59
2023-12-05T14:57:48.325Z,0.55
2023-12-05T15:00:18.661Z,0.47
2023-12-05T15:02:48.849Z,0.57
2023-12-05T15:05:18.208Z,0.58
2023-12-05T15:07:48.485Z,0.58
2023-12-05T15:10:18.075Z,0.75
2023-12-05T15:12:56.255Z,0.61
2023-12-05T15:15:26.924Z,0.61
2023-12-05T15:17:57.814Z,0.59
2023-12-05T15:20:26.829Z,0.56
2023-12-05T15:22:57.250Z,0.46
2023-12-05T15:25:25.809Z,0.44
2023-12-05T15:27:54.382Z,0.42
2023-12-05T15:30:23.467Z,0.39
2023-12-05T15:32:57.144Z,0.36
2023-12-05T15:35:27.112Z,0.31
2023-12-05T15:37:55.692Z,0.28
2023-12-05T15:40:24.198Z,0.26
2023-12-05T15:42:52.830Z,0.25
2023-12-05T15:45:21.978Z,0.27
2023-12-05T15:47:51.174Z,0.26
2023-12-05T15:50:21.449Z,0.23
2023-12-05T15:52:52.156Z,0.25
2023-12-05T15:55:23.582Z,0.25
2023-12-05T15:57:52.475Z,0.23
2023-12-05T16:00:21.510Z,0.22
2023-12-05T16:02:50.041Z,0.21
2023-12-05T16:05:18.859Z,0.25
2023-12-05T16:07:47.758Z,0.26
2023-12-05T16:10:18.128Z,0.26
2023-12-05T16:12:53.027Z,0.26
2023-12-05T16:15:22.245Z,0.25
2023-12-05T16:17:51.686Z,0.19
2023-12-05T16:20:20.244Z,0.21
2023-12-05T16:22:49.554Z,0.18
2023-12-05T16:25:19.951Z,0.20
2023-12-05T16:27:48.467Z,0.21
2023-12-05T16:30:17.441Z,0.18
2023-12-05T16:32:46.004Z,0.19
2023-12-05T16:35:14.656Z,0.18
2023-12-05T16:37:43.392Z,0.16
2023-12-05T16:40:12.517Z,0.17
2023-12-05T16:42:42.714Z,0.15
2023-12-05T16:45:12.236Z,0.14
2023-12-05T16:47:41.204Z,0.14
2023-12-05T16:50:10.488Z,0.11
2023-12-05T16:52:39.046Z,0.11
2023-12-05T16:55:07.769Z,0.12
2023-12-05T16:57:36.427Z,0.11
2023-12-05T17:00:09.389Z,0.13
2023-12-05T17:02:38.033Z,0.11
2023-12-05T17:05:07.265Z,0.10
2023-12-05T17:07:35.834Z,0.07
2023-12-05T17:10:04.821Z,0.02
2023-12-05T17:12:33.475Z,0.01
2023-12-05T17:15:02.604Z,-0.03
2023-12-05T17:17:34.893Z,-0.04
2023-12-05T17:20:04.647Z,-0.08
2023-12-05T17:22:33.515Z,-0.11
2023-12-05T17:25:02.299Z,-0.14
2023-12-05T17:27:31.089Z,-0.12
2023-12-05T17:29:59.642Z,-0.10
2023-12-05T17:32:28.674Z,-0.12
2023-12-05T17:34:59.407Z,-0.18
2023-12-05T17:37:32.295Z,-0.19
2023-12-05T17:40:01.030Z,-0.22
2023-12-05T17:42:30.231Z,-0.20
2023-12-05T17:44:58.849Z,-0.19
2023-12-05T17:47:27.455Z,-0.16
2023-12-05T17:49:59.220Z,-0.16
2023-12-05T17:52:27.796Z,-0.21
2023-12-05T17:54:56.296Z,-0.17
2023-12-05T17:57:24.869Z,-0.16
2023-12-05T17:59:53.370Z,-0.17
2023-12-05T18:02:24.850Z,-0.24
2023-12-05T18:04:54.011Z,-0.16
2023-12-05T18:07:52.497Z,-0.16
2023-12-05T18:10:14.580Z,-0.13
2023-12-05T18:12:43.616Z,-0.18
2023-12-05T18:15:12.860Z,-0.17
2023-12-05T18:17:42.973Z,-0.26
2023-12-05T18:20:12.491Z,-0.19
2023-12-05T18:22:46.141Z,-0.19
2023-12-05T18:25:15.972Z,-0.20
2023-12-05T18:27:46.861Z,-0.22
2023-12-05T18:30:15.644Z,-0.16
2023-12-05T18:32:44.752Z,-0.20
2023-12-05T18:35:14.076Z,-0.21
2023-12-05T18:37:44.562Z,-0.23
2023-12-05T18:40:14.762Z,-0.25
2023-12-05T18:42:44.802Z,-0.26
2023-12-05T18:45:13.565Z,-0.24
2023-12-05T18:47:43.366Z,-0.27
2023-12-05T18:50:12.375Z,-0.22
2023-12-05T18:52:41.264Z,-0.33
2023-12-05T18:55:11.558Z,-0.32
2023-12-05T18:57:47.778Z,-0.21
2023-12-05T19:00:19.094Z,-0.19
2023-12-05T19:02:47.855Z,-0.20
2023-12-05T19:05:16.557Z,-0.21
2023-12-05T19:07:45.203Z,-0.20
2023-12-05T19:10:15.560Z,-0.25
2023-12-05T19:12:46.417Z,-0.20
2023-12-05T19:15:16.412Z,-0.23
2023-12-05T19:17:46.484Z,-0.21
2023-12-05T19:20:15.591Z,-0.09
2023-12-05T19:22:44.540Z,-0.11
2023-12-05T19:25:15.051Z,0.02
2023-12-05T19:27:43.590Z,0.00
2023-12-05T19:30:13.051Z,0.00
2023-12-05T19:32:42.153Z,-0.03
2023-12-05T19:35:11.524Z,-0.16
2023-12-05T19:37:40.688Z,-0.05
2023-12-05T19:40:10.430Z,-0.07
2023-12-05T19:42:40.606Z,-0.05
2023-12-05T19:45:10.058Z,-0.03
2023-12-05T19:47:39.275Z,0.01
2023-12-05T19:50:09.274Z,0.06
2023-12-05T19:52:37.858Z,0.12
2023-12-05T19:55:07.641Z,0.19
2023-12-05T19:57:36.344Z,0.23
2023-12-05T20:00:07.591Z,0.22
2023-12-05T20:02:36.687Z,0.29
2023-12-05T20:05:05.981Z,0.32
2023-12-05T20:07:34.552Z,0.36
2023-12-05T20:10:03.211Z,0.32
2023-12-05T20:12:32.047Z,0.31
2023-12-05T20:15:00.822Z,0.27
2023-12-05T20:17:30.833Z,0.30
2023-12-05T20:19:59.451Z,0.30
2023-12-05T20:22:29.889Z,0.30
2023-12-05T20:24:58.772Z,0.29
2023-12-05T20:27:28.463Z,0.27
2023-12-05T20:29:57.641Z,0.43
2023-12-05T20:32:26.477Z,0.53
2023-12-05T20:34:56.578Z,0.56
2023-12-05T20:37:25.145Z,0.55
2023-12-05T20:39:53.695Z,0.66
2023-12-05T20:42:27.125Z,0.66
2023-12-05T20:44:56.924Z,0.59
2023-12-05T20:47:25.930Z,0.56
2023-12-05T20:49:55.878Z,0.46
2023-12-05T20:52:25.600Z,0.43
2023-12-05T20:54:54.333Z,0.47
2023-12-05T20:57:22.996Z,0.49
2023-12-05T20:59:51.708Z,0.49
2023-12-05T21:02:20.233Z,0.50
2023-12-05T21:04:49.199Z,0.50
2023-12-05T21:07:21.307Z,0.45
2023-12-05T21:09:50.589Z,0.45
2023-12-05T21:12:19.722Z,0.41
2023-12-05T21:14:48.317Z,0.55
2023-12-05T21:17:16.779Z,0.73
2023-12-05T21:19:45.387Z,0.71
2023-12-05T21:22:13.937Z,0.60
2023-12-05T21:24:44.915Z,0.60
2023-12-05T21:27:13.463Z,0.54
2023-12-05T21:29:42.400Z,0.52
2023-12-05T21:32:10.996Z,0.40
2023-12-05T21:34:43.807Z,0.44
2023-12-05T21:37:12.017Z,0.39
2023-12-05T21:39:40.719Z,0.28
2023-12-05T21:42:11.495Z,0.16
2023-12-05T21:44:41.657Z,-0.04
2023-12-05T21:47:10.831Z,-0.21
2023-12-05T21:49:39.534Z,-0.22
2023-12-05T21:52:08.938Z,-0.37
2023-12-05T21:54:37.569Z,-0.50
2023-12-05T21:57:06.786Z,-0.46
2023-12-05T21:59:41.537Z,-0.53
2023-12-05T22:02:10.124Z,-0.63
2023-12-05T22:04:38.815Z,-0.69
2023-12-05T22:07:07.615Z,-0.69
2023-12-05T22:09:36.428Z,-0.70
2023-12-05T22:12:05.340Z,-0.76
2023-12-05T22:14:33.896Z,-0.72
2023-12-05T22:17:04.012Z,-0.71
2023-12-05T22:19:32.531Z,-0.70
2023-12-05T22:22:01.488Z,-0.75
2023-12-05T22:24:32.897Z,-0.81
2023-12-05T22:27:01.882Z,-0.78
2023-12-05T22:29:30.547Z,-0.78
2023-12-05T22:31:59.437Z,-0.87
2023-12-05T22:34:29.656Z,-0.84
2023-12-05T22:36:58.644Z,-0.86
2023-12-05T22:39:27.328Z,-0.84
2023-12-05T22:41:55.866Z,-0.86
2023-12-05T22:44:24.425Z,-0.91
2023-12-05T22:46:53.016Z,-0.91
2023-12-05T22:49:21.592Z,-0.93
2023-12-05T22:51:51.722Z,-0.91
2023-12-05T22:54:20.398Z,-0.95
2023-12-05T22:56:49.000Z,-1.03
2023-12-05T22:59:17.519Z,-0.98
2023-12-05T23:01:46.060Z,-0.93
2023-12-05T23:04:15.653Z,-0.86
2023-12-05T23:06:44.279Z,-0.78
2023-12-05T23:09:14.303Z,-0.80
2023-12-05T23:11:43.179Z,-0.80
2023-12-05T23:14:11.686Z,-0.76
2023-12-05T23:16:40.263Z,-0.74
2023-12-05T23:19:09.034Z,-0.87
2023-12-05T23:21:39.183Z,-0.72
2023-12-05T23:24:08.365Z,-0.69
2023-12-05T23:26:38.314Z,-0.71
2023-12-05T23:29:07.233Z,-0.70
2023-12-05T23:31:35.787Z,-0.66
2023-12-05T23:34:04.714Z,-0.66
2023-12-05T23:36:33.742Z,-0.64
2023-12-05T23:39:02.726Z,-0.67
2023-12-05T23:41:31.438Z,-0.65
2023-12-05T23:44:01.484Z,-0.64
2023-12-05T23:46:30.482Z,-0.63
2023-12-05T23:48:59.136Z,-0.78
2023-12-05T23:51:27.663Z,-0.62
2023-12-05T23:53:59.095Z,-0.62
2023-12-05T23:56:28.734Z,-0.65
2023-12-05T23:58:57.509Z,-0.66
